Time;durP1;ratioP1;P1;durP2;ratioP2;P2;SDS_P1;SDS_P2;PMS_P1;PMS_P2;Temp;Humidity;BMP_temperature;BMP_pressure;BME280_temperature;BME280_humidity;BME280_pressure;Samples;Min_cycle;Max_cycle;Signal;HPM_P1;HPM_P2
2023/03/07 00:01:29;;;;;;;66.80;59.92;;;;;;;;;;5051738;28;20025;-62
2023/03/07 00:03:56;;;;;;;69.97;60.17;;;;;;;;;;5051976;28;20057;-63
2023/03/07 00:06:22;;;;;;;65.63;59.10;;;;;;;;;;5052019;28;20021;-58
2023/03/07 00:08:49;;;;;;;68.07;60.33;;;;;;;;;;5052116;28;20060;-63
2023/03/07 00:11:15;;;;;;;67.97;59.45;;;;;;;;;;5068353;28;20033;-63
2023/03/07 00:13:41;;;;;;;73.78;65.75;;;;;;;;;;5035048;28;20515;-64
2023/03/07 00:16:08;;;;;;;66.90;60.35;;;;;;;;;;5054286;28;20068;-62
2023/03/07 00:18:35;;;;;;;67.83;61.27;;;;;;;;;;5056093;28;20029;-62
2023/03/07 00:21:04;;;;;;;74.10;66.07;;;;;;;;;;5036739;28;20021;-63
2023/03/07 00:23:30;;;;;;;69.50;62.40;;;;;;;;;;5036124;28;20163;-61
2023/03/07 00:25:57;;;;;;;67.38;60.45;;;;;;;;;;5036504;28;20071;-64
2023/03/07 00:28:23;;;;;;;77.47;69.03;;;;;;;;;;5054387;28;20075;-62
2023/03/07 00:30:49;;;;;;;82.43;73.63;;;;;;;;;;5054230;28;20029;-63
2023/03/07 00:33:15;;;;;;;78.68;68.93;;;;;;;;;;5036476;28;20122;-63
2023/03/07 00:35:41;;;;;;;78.35;70.55;;;;;;;;;;5054645;28;20486;-63
2023/03/07 00:38:07;;;;;;;87.15;78.22;;;;;;;;;;5036744;28;20029;-61
2023/03/07 00:40:33;;;;;;;77.90;70.47;;;;;;;;;;5054688;28;20028;-58
2023/03/07 00:42:59;;;;;;;80.68;72.32;;;;;;;;;;5054229;28;20032;-56
2023/03/07 00:45:25;;;;;;;83.63;74.88;;;;;;;;;;5054378;28;20370;-64
2023/03/07 00:47:51;;;;;;;86.68;77.78;;;;;;;;;;5054182;28;20079;-61
2023/03/07 00:50:18;;;;;;;84.80;76.20;;;;;;;;;;5054091;28;20449;-64
2023/03/07 00:52:43;;;;;;;84.00;75.18;;;;;;;;;;5054015;28;20104;-62
2023/03/07 00:55:09;;;;;;;96.30;86.43;;;;;;;;;;5054126;28;20058;-63
2023/03/07 00:57:35;;;;;;;82.43;74.78;;;;;;;;;;5054402;28;20465;-61
2023/03/07 01:00:02;;;;;;;87.78;79.15;;;;;;;;;;5036340;28;20112;-60
2023/03/07 01:02:28;;;;;;;83.13;75.57;;;;;;;;;;5054079;28;20035;-63
2023/03/07 01:04:54;;;;;;;80.88;73.85;;;;;;;;;;5035955;28;20112;-62
2023/03/07 01:07:20;;;;;;;82.30;74.78;;;;;;;;;;5036321;28;20033;-62
2023/03/07 01:09:50;;;;;;;89.18;81.22;;;;;;;;;;5053838;28;20021;-63
2023/03/07 01:12:16;;;;;;;83.82;76.45;;;;;;;;;;5052466;28;20381;-63
2023/03/07 01:14:42;;;;;;;78.07;71.22;;;;;;;;;;5053754;28;20025;-63
2023/03/07 01:17:08;;;;;;;75.10;68.82;;;;;;;;;;5053984;28;20035;-61
2023/03/07 01:19:34;;;;;;;77.68;71.05;;;;;;;;;;5053877;28;20032;-58
2023/03/07 01:22:00;;;;;;;76.22;69.47;;;;;;;;;;5036174;28;20021;-60
2023/03/07 01:24:26;;;;;;;78.43;71.85;;;;;;;;;;5053385;28;20098;-60
2023/03/07 01:26:52;;;;;;;73.95;67.97;;;;;;;;;;5053851;28;20036;-61
2023/03/07 01:29:18;;;;;;;72.68;66.85;;;;;;;;;;5053809;28;20473;-60
2023/03/07 01:31:44;;;;;;;73.80;68.32;;;;;;;;;;5035765;28;20087;-60
2023/03/07 01:34:10;;;;;;;72.10;66.30;;;;;;;;;;5035736;28;20032;-58
2023/03/07 01:36:36;;;;;;;70.90;65.35;;;;;;;;;;5053672;28;20083;-59
2023/03/07 01:39:06;;;;;;;73.35;67.43;;;;;;;;;;5035714;28;20033;-59
2023/03/07 01:41:33;;;;;;;73.57;67.93;;;;;;;;;;5053289;28;20095;-55
2023/03/07 01:44:01;;;;;;;73.78;68.25;;;;;;;;;;5035016;28;20021;-62
2023/03/07 01:46:30;;;;;;;69.55;64.22;;;;;;;;;;5054174;28;20032;-59
2023/03/07 01:48:59;;;;;;;71.55;66.25;;;;;;;;;;5053283;28;20096;-59
2023/03/07 01:51:25;;;;;;;73.38;67.60;;;;;;;;;;5032923;28;20044;-60
2023/03/07 01:53:53;;;;;;;65.70;60.47;;;;;;;;;;5052381;28;20052;-57
2023/03/07 01:56:20;;;;;;;62.03;57.33;;;;;;;;;;5053048;28;20436;-60
2023/03/07 01:58:46;;;;;;;58.97;54.28;;;;;;;;;;5035094;28;20078;-62
2023/03/07 02:01:13;;;;;;;57.65;52.95;;;;;;;;;;5035053;28;20033;-60
2023/03/07 02:03:47;;;;;;;57.15;51.95;;;;;;;;;;5034373;28;20082;-55
2023/03/07 02:06:13;;;;;;;59.20;54.67;;;;;;;;;;5052865;28;20102;-61
2023/03/07 02:08:39;;;;;;;54.08;49.80;;;;;;;;;;5034839;28;20021;-59
2023/03/07 02:11:06;;;;;;;53.08;48.70;;;;;;;;;;5050830;28;20370;-59
2023/03/07 02:13:32;;;;;;;52.63;48.50;;;;;;;;;;5052002;28;20501;-58
2023/03/07 02:16:00;;;;;;;51.83;47.67;;;;;;;;;;5052410;28;20396;-59
2023/03/07 02:18:28;;;;;;;55.28;50.85;;;;;;;;;;5052636;28;20079;-60
2023/03/07 02:21:11;;;;;;;55.28;50.42;;;;;;;;;;5052299;28;20561;-59
2023/03/07 02:23:46;;;;;;;54.08;49.58;;;;;;;;;;5051541;28;20390;-58
2023/03/07 02:26:15;;;;;;;54.70;50.30;;;;;;;;;;5052493;28;20477;-59
2023/03/07 02:28:41;;;;;;;53.58;49.08;;;;;;;;;;5051951;28;20025;-56
2023/03/07 02:31:07;;;;;;;54.00;49.50;;;;;;;;;;5052086;28;20094;-57
2023/03/07 02:33:33;;;;;;;52.55;48.15;;;;;;;;;;5051905;28;20025;-59
2023/03/07 02:36:02;;;;;;;51.90;47.40;;;;;;;;;;5034475;28;20025;-60
2023/03/07 02:38:29;;;;;;;48.63;44.53;;;;;;;;;;5052098;28;20087;-58
2023/03/07 02:40:56;;;;;;;49.63;45.53;;;;;;;;;;5034334;28;20125;-59
2023/03/07 02:43:22;;;;;;;52.40;47.75;;;;;;;;;;5034034;28;20028;-61
2023/03/07 02:45:48;;;;;;;48.45;44.28;;;;;;;;;;5033930;28;20128;-60
2023/03/07 02:48:14;;;;;;;49.85;45.47;;;;;;;;;;5034702;28;20031;-61
2023/03/07 02:50:40;;;;;;;50.63;46.13;;;;;;;;;;5049785;28;20482;-61
2023/03/07 02:53:06;;;;;;;48.05;43.95;;;;;;;;;;5051542;28;20025;-58
2023/03/07 02:55:32;;;;;;;45.08;41.35;;;;;;;;;;5051795;28;20108;-55
2023/03/07 02:57:58;;;;;;;47.67;43.30;;;;;;;;;;5051761;28;20036;-61
2023/03/07 03:00:24;;;;;;;64.43;43.33;;;;;;;;;;5051672;28;20021;-62
2023/03/07 03:02:51;;;;;;;44.35;40.38;;;;;;;;;;5051561;28;20025;-60
2023/03/07 03:05:17;;;;;;;43.17;39.40;;;;;;;;;;5050266;28;20028;-62
2023/03/07 03:07:43;;;;;;;43.00;39.30;;;;;;;;;;5051523;28;20027;-62
2023/03/07 03:10:09;;;;;;;45.97;42.00;;;;;;;;;;5051462;28;20025;-62
2023/03/07 03:12:35;;;;;;;49.40;45.03;;;;;;;;;;5038293;28;20028;-62
2023/03/07 03:15:01;;;;;;;48.60;44.55;;;;;;;;;;5033525;28;20104;-62
2023/03/07 03:17:27;;;;;;;49.00;44.85;;;;;;;;;;5051845;28;20393;-60
2023/03/07 03:19:53;;;;;;;52.13;47.45;;;;;;;;;;5051744;28;20025;-62
2023/03/07 03:22:19;;;;;;;50.03;45.92;;;;;;;;;;5033631;28;20039;-60
2023/03/07 03:24:45;;;;;;;50.70;46.63;;;;;;;;;;5051076;28;20532;-58
2023/03/07 03:27:11;;;;;;;53.38;49.00;;;;;;;;;;5051489;28;20025;-59
2023/03/07 03:29:37;;;;;;;51.20;46.97;;;;;;;;;;5033652;28;20493;-59
2023/03/07 03:32:04;;;;;;;53.17;48.95;;;;;;;;;;5051531;28;20025;-58
2023/03/07 03:34:30;;;;;;;56.65;51.95;;;;;;;;;;5051383;28;20040;-61
2023/03/07 03:36:56;;;;;;;56.00;51.35;;;;;;;;;;5055523;28;20698;-60
2023/03/07 03:39:22;;;;;;;52.08;47.67;;;;;;;;;;5055380;28;20068;-57
2023/03/07 03:41:48;;;;;;;55.42;50.80;;;;;;;;;;5037294;28;20044;-61
2023/03/07 03:44:14;;;;;;;57.17;52.40;;;;;;;;;;5037258;28;20029;-60
2023/03/07 03:46:40;;;;;;;57.33;52.50;;;;;;;;;;5055337;28;20025;-59
2023/03/07 03:49:06;;;;;;;54.38;50.08;;;;;;;;;;5055210;28;20108;-60
2023/03/07 03:51:32;;;;;;;58.58;53.78;;;;;;;;;;5055442;28;20025;-59
2023/03/07 03:53:58;;;;;;;58.65;53.65;;;;;;;;;;5054778;28;20324;-61
2023/03/07 03:56:24;;;;;;;59.70;54.53;;;;;;;;;;5055102;28;20033;-54
2023/03/07 03:58:52;;;;;;;58.88;53.78;;;;;;;;;;5054919;28;20138;-62
2023/03/07 04:01:19;;;;;;;60.72;55.58;;;;;;;;;;5055041;28;20029;-63
2023/03/07 04:03:46;;;;;;;60.13;54.50;;;;;;;;;;5054856;28;20032;-61
2023/03/07 04:06:13;;;;;;;55.08;50.70;;;;;;;;;;5037194;28;20037;-58
2023/03/07 04:08:40;;;;;;;58.72;53.60;;;;;;;;;;5055137;28;20025;-61
2023/03/07 04:11:06;;;;;;;57.78;52.75;;;;;;;;;;5055443;28;20082;-57
2023/03/07 04:13:33;;;;;;;55.85;50.65;;;;;;;;;;5054958;28;20036;-58
2023/03/07 04:15:59;;;;;;;57.55;52.97;;;;;;;;;;5055116;28;20711;-57
2023/03/07 04:18:25;;;;;;;58.42;53.78;;;;;;;;;;5055110;28;20028;-57
2023/03/07 04:20:51;;;;;;;58.95;54.05;;;;;;;;;;5054635;28;20389;-59
2023/03/07 04:23:19;;;;;;;55.00;50.75;;;;;;;;;;5036313;28;20044;-58
2023/03/07 04:25:48;;;;;;;58.63;54.08;;;;;;;;;;5054612;28;20108;-59
2023/03/07 04:28:15;;;;;;;59.38;54.47;;;;;;;;;;5036619;28;20032;-61
2023/03/07 04:30:41;;;;;;;62.63;57.80;;;;;;;;;;5036644;28;20054;-60
2023/03/07 04:33:07;;;;;;;65.97;61.17;;;;;;;;;;5036684;28;20402;-57
2023/03/07 04:35:33;;;;;;;62.65;58.33;;;;;;;;;;5054829;28;20033;-57
2023/03/07 04:37:59;;;;;;;65.18;60.67;;;;;;;;;;5054464;28;20031;-57
2023/03/07 04:40:25;;;;;;;67.03;62.17;;;;;;;;;;5054501;28;20032;-59
2023/03/07 04:42:51;;;;;;;65.95;61.67;;;;;;;;;;5036289;28;20021;-58
2023/03/07 04:45:17;;;;;;;63.92;59.40;;;;;;;;;;5054081;28;20099;-53
2023/03/07 04:47:43;;;;;;;60.92;56.72;;;;;;;;;;5036270;28;20017;-58
2023/03/07 04:50:10;;;;;;;60.13;56.05;;;;;;;;;;5036198;28;20377;-52
2023/03/07 04:52:36;;;;;;;60.95;56.72;;;;;;;;;;5054005;28;20021;-58
2023/03/07 04:55:02;;;;;;;58.75;54.60;;;;;;;;;;5053705;28;20108;-55
2023/03/07 04:57:28;;;;;;;59.72;55.58;;;;;;;;;;5051167;28;20523;-57
2023/03/07 04:59:54;;;;;;;63.20;58.90;;;;;;;;;;5053954;28;20025;-56
2023/03/07 05:02:20;;;;;;;60.13;56.13;;;;;;;;;;5053901;28;20036;-55
2023/03/07 05:04:46;;;;;;;55.28;51.75;;;;;;;;;;5053425;28;20080;-58
2023/03/07 05:07:12;;;;;;;57.10;53.50;;;;;;;;;;5036032;28;20017;-58
2023/03/07 05:09:38;;;;;;;57.45;53.85;;;;;;;;;;5041230;28;20008;-56
2023/03/07 05:12:04;;;;;;;56.63;53.03;;;;;;;;;;5036087;28;20184;-59
2023/03/07 05:14:30;;;;;;;57.30;53.70;;;;;;;;;;5053053;28;20630;-59
2023/03/07 05:16:56;;;;;;;57.13;53.53;;;;;;;;;;5053530;28;20108;-58
2023/03/07 05:19:22;;;;;;;55.67;52.08;;;;;;;;;;5053303;28;20023;-59
2023/03/07 05:21:48;;;;;;;54.38;50.88;;;;;;;;;;5035339;28;20039;-58
2023/03/07 05:24:14;;;;;;;56.72;53.13;;;;;;;;;;5035320;28;20108;-60
2023/03/07 05:26:40;;;;;;;56.55;52.95;;;;;;;;;;5053457;28;20041;-56
2023/03/07 05:29:06;;;;;;;53.95;50.45;;;;;;;;;;5053100;28;20028;-62
2023/03/07 05:31:32;;;;;;;54.38;50.67;;;;;;;;;;5035605;28;20028;-58
2023/03/07 05:33:58;;;;;;;52.75;49.33;;;;;;;;;;5034984;28;20448;-58
2023/03/07 05:36:24;;;;;;;53.55;50.03;;;;;;;;;;5053246;28;20044;-59
2023/03/07 05:38:52;;;;;;;53.78;50.28;;;;;;;;;;5052993;28;20057;-61
2023/03/07 05:41:18;;;;;;;52.65;49.15;;;;;;;;;;5035435;28;20397;-62
2023/03/07 05:43:45;;;;;;;51.28;47.88;;;;;;;;;;5052673;28;20037;-59
2023/03/07 05:46:11;;;;;;;50.45;47.05;;;;;;;;;;5052857;28;20453;-61
2023/03/07 05:48:37;;;;;;;49.53;46.22;;;;;;;;;;5035174;28;20025;-55
2023/03/07 05:51:03;;;;;;;49.95;46.63;;;;;;;;;;5053012;28;20021;-59
2023/03/07 05:53:30;;;;;;;49.05;45.75;;;;;;;;;;5034412;28;20043;-58
2023/03/07 05:55:56;;;;;;;49.75;46.35;;;;;;;;;;5052667;28;20512;-59
2023/03/07 05:58:22;;;;;;;50.92;47.42;;;;;;;;;;5051725;28;20482;-57
2023/03/07 06:00:48;;;;;;;48.80;45.50;;;;;;;;;;5051593;28;20044;-59
2023/03/07 06:03:14;;;;;;;47.13;43.83;;;;;;;;;;5033043;28;20021;-56
2023/03/07 06:05:41;;;;;;;46.30;43.10;;;;;;;;;;5034249;28;20027;-60
2023/03/07 06:08:07;;;;;;;47.80;44.50;;;;;;;;;;5034635;28;20029;-61
2023/03/07 06:10:33;;;;;;;46.38;43.17;;;;;;;;;;5034237;28;20025;-57
2023/03/07 06:12:59;;;;;;;45.85;42.65;;;;;;;;;;5051739;28;20057;-58
2023/03/07 06:15:25;;;;;;;46.20;43.00;;;;;;;;;;5034548;28;20028;-56
2023/03/07 06:17:51;;;;;;;45.92;42.72;;;;;;;;;;5073390;22;20466;-60
2023/03/07 06:20:19;;;;;;;43.78;40.67;;;;;;;;;;5072183;28;20032;-54
2023/03/07 06:22:45;;;;;;;44.75;41.65;;;;;;;;;;5071618;28;20044;-56
2023/03/07 06:25:13;;;;;;;45.15;42.05;;;;;;;;;;5053307;28;20082;-57
2023/03/07 06:27:39;;;;;;;46.47;43.28;;;;;;;;;;5071428;28;20021;-55
2023/03/07 06:30:06;;;;;;;45.33;42.13;;;;;;;;;;5071788;28;20340;-54
2023/03/07 06:32:32;;;;;;;45.13;41.92;;;;;;;;;;5071250;28;20108;-53
2023/03/07 06:34:58;;;;;;;46.17;43.00;;;;;;;;;;5069736;28;20142;-54
2023/03/07 06:37:24;;;;;;;45.08;41.97;;;;;;;;;;5049731;28;20029;-57
2023/03/07 06:39:50;;;;;;;42.78;39.83;;;;;;;;;;5051644;28;20032;-56
2023/03/07 06:42:16;;;;;;;42.63;39.63;;;;;;;;;;5051350;28;20032;-56
2023/03/07 06:44:42;;;;;;;47.95;44.42;;;;;;;;;;5051944;28;20477;-55
2023/03/07 06:47:08;;;;;;;40.72;37.83;;;;;;;;;;5052939;28;20037;-59
2023/03/07 06:49:34;;;;;;;42.67;39.75;;;;;;;;;;5053425;28;20025;-57
2023/03/07 06:52:00;;;;;;;48.00;44.80;;;;;;;;;;5051414;28;20029;-57
2023/03/07 06:54:26;;;;;;;46.70;43.60;;;;;;;;;;5048785;28;20031;-57
2023/03/07 06:56:53;;;;;;;46.70;43.60;;;;;;;;;;5031278;28;20064;-55
2023/03/07 06:59:19;;;;;;;44.60;41.58;;;;;;;;;;5031573;28;20029;-57
2023/03/07 07:01:47;;;;;;;44.00;41.00;;;;;;;;;;5031896;28;20032;-57
2023/03/07 07:04:13;;;;;;;43.13;40.13;;;;;;;;;;5050466;28;20082;-52
2023/03/07 07:06:39;;;;;;;47.08;43.88;;;;;;;;;;5051262;28;20025;-53
2023/03/07 07:09:05;;;;;;;46.83;43.63;;;;;;;;;;5049495;28;20017;-52
2023/03/07 07:11:32;;;;;;;49.50;46.10;;;;;;;;;;5048960;28;20492;-56
2023/03/07 07:13:58;;;;;;;47.15;43.95;;;;;;;;;;5049549;28;20029;-57
2023/03/07 07:16:24;;;;;;;47.42;44.22;;;;;;;;;;5049020;28;20028;-57
2023/03/07 07:18:50;;;;;;;47.03;43.83;;;;;;;;;;5049757;28;20095;-53
2023/03/07 07:21:17;;;;;;;45.72;42.58;;;;;;;;;;5050581;28;20045;-52
2023/03/07 07:23:43;;;;;;;44.85;41.75;;;;;;;;;;5050523;28;20554;-57
2023/03/07 07:26:09;;;;;;;44.58;41.47;;;;;;;;;;5049060;28;20035;-58
2023/03/07 07:28:35;;;;;;;45.67;42.58;;;;;;;;;;5049963;28;20031;-57
2023/03/07 07:31:02;;;;;;;45.40;42.30;;;;;;;;;;5050827;28;20025;-56
2023/03/07 07:33:28;;;;;;;38.65;35.92;;;;;;;;;;5050545;28;20036;-50
2023/03/07 07:35:54;;;;;;;39.03;36.22;;;;;;;;;;5050315;28;20393;-54
2023/03/07 07:38:20;;;;;;;40.63;37.75;;;;;;;;;;5069388;28;20025;-55
2023/03/07 07:40:46;;;;;;;41.00;38.10;;;;;;;;;;5070381;28;20029;-53
2023/03/07 07:43:16;;;;;;;40.25;37.45;;;;;;;;;;5070383;28;20067;-56
2023/03/07 07:45:42;;;;;;;39.72;36.95;;;;;;;;;;5069010;28;20044;-53
2023/03/07 07:48:08;;;;;;;37.22;34.63;;;;;;;;;;5068554;28;20025;-55
2023/03/07 07:50:34;;;;;;;36.03;33.42;;;;;;;;;;5070368;28;20029;-55
2023/03/07 07:53:00;;;;;;;34.97;32.47;;;;;;;;;;5070500;28;20033;-57
2023/03/07 07:55:27;;;;;;;35.40;32.88;;;;;;;;;;5070979;28;20480;-57
2023/03/07 07:57:53;;;;;;;34.72;32.22;;;;;;;;;;5070753;28;20112;-50
2023/03/07 08:00:22;;;;;;;39.35;36.65;;;;;;;;;;5070885;28;20094;-54
2023/03/07 08:02:49;;;;;;;37.35;34.75;;;;;;;;;;5070356;28;20074;-57
2023/03/07 08:05:15;;;;;;;37.47;34.88;;;;;;;;;;5051698;28;20029;-51
2023/03/07 08:07:42;;;;;;;36.75;34.15;;;;;;;;;;5050313;28;20083;-55
2023/03/07 08:10:08;;;;;;;38.00;35.40;;;;;;;;;;5050503;28;20082;-55
2023/03/07 08:12:34;;;;;;;40.00;37.20;;;;;;;;;;5050496;28;20027;-57
2023/03/07 08:15:00;;;;;;;41.55;38.75;;;;;;;;;;5050250;28;20096;-56
2023/03/07 08:17:28;;;;;;;42.30;39.40;;;;;;;;;;5049704;28;20365;-55
2023/03/07 08:19:54;;;;;;;46.60;43.50;;;;;;;;;;5050515;28;20473;-56
2023/03/07 08:22:21;;;;;;;44.42;41.42;;;;;;;;;;5053305;28;20073;-53
2023/03/07 08:24:49;;;;;;;45.72;42.63;;;;;;;;;;5053706;28;20104;-55
2023/03/07 08:27:15;;;;;;;46.25;43.15;;;;;;;;;;5054055;28;20017;-57
2023/03/07 08:29:41;;;;;;;47.55;44.45;;;;;;;;;;5054034;28;20508;-54
2023/03/07 08:32:07;;;;;;;47.15;44.05;;;;;;;;;;5053829;28;20041;-55
2023/03/07 08:34:33;;;;;;;49.80;46.60;;;;;;;;;;5053520;28;20183;-52
2023/03/07 08:36:59;;;;;;;46.97;43.88;;;;;;;;;;5052922;28;20389;-51
2023/03/07 08:39:25;;;;;;;47.85;44.75;;;;;;;;;;5053825;28;20036;-58
2023/03/07 08:41:54;;;;;;;44.45;41.45;;;;;;;;;;5053793;28;20119;-55
2023/03/07 08:44:20;;;;;;;44.25;41.25;;;;;;;;;;5053311;28;20039;-53
2023/03/07 08:46:46;;;;;;;44.22;41.22;;;;;;;;;;5053652;28;20108;-58
2023/03/07 08:49:12;;;;;;;45.15;42.10;;;;;;;;;;5053584;28;20088;-54
2023/03/07 08:51:38;;;;;;;43.92;40.92;;;;;;;;;;5053473;28;20086;-55
2023/03/07 08:54:04;;;;;;;47.05;43.85;;;;;;;;;;5053070;28;20036;-54
2023/03/07 08:56:30;;;;;;;44.08;41.08;;;;;;;;;;5053427;28;20032;-51
2023/03/07 08:58:56;;;;;;;45.55;42.45;;;;;;;;;;5053160;28;20025;-57
2023/03/07 09:01:22;;;;;;;50.55;45.83;;;;;;;;;;5051744;28;20037;-55
2023/03/07 09:03:48;;;;;;;47.55;44.35;;;;;;;;;;5050766;28;20040;-54
2023/03/07 09:06:15;;;;;;;47.03;43.83;;;;;;;;;;5051938;28;20112;-53
2023/03/07 09:08:41;;;;;;;45.45;42.35;;;;;;;;;;5052872;28;20092;-53
2023/03/07 09:11:07;;;;;;;44.33;41.33;;;;;;;;;;5053579;28;20048;-53
2023/03/07 09:13:33;;;;;;;45.80;42.70;;;;;;;;;;5051441;28;20025;-52
2023/03/07 09:15:59;;;;;;;45.80;42.70;;;;;;;;;;5051899;28;20503;-52
2023/03/07 09:18:25;;;;;;;45.20;42.13;;;;;;;;;;5052358;28;20044;-52
2023/03/07 09:20:51;;;;;;;44.47;41.47;;;;;;;;;;5051108;28;20032;-54
2023/03/07 09:23:17;;;;;;;45.83;42.72;;;;;;;;;;5052417;28;20497;-55
2023/03/07 09:25:44;;;;;;;43.83;40.83;;;;;;;;;;5052692;28;20103;-51
2023/03/07 09:28:09;;;;;;;44.42;41.42;;;;;;;;;;5052549;28;20021;-51
2023/03/07 09:30:36;;;;;;;41.97;39.08;;;;;;;;;;5053182;28;20384;-54
2023/03/07 09:33:03;;;;;;;47.85;44.50;;;;;;;;;;5051677;28;20029;-48
2023/03/07 09:35:29;;;;;;;44.03;41.03;;;;;;;;;;5052995;28;20025;-49
2023/03/07 09:37:55;;;;;;;44.38;41.38;;;;;;;;;;5052497;28;20040;-48
2023/03/07 09:40:22;;;;;;;42.53;39.63;;;;;;;;;;5052528;28;20017;-51
2023/03/07 09:43:01;;;;;;;45.30;42.30;;;;;;;;;;5052414;28;20028;-56
2023/03/07 09:45:33;;;;;;;44.03;41.03;;;;;;;;;;5052564;28;20025;-53
2023/03/07 09:48:11;;;;;;;44.55;41.55;;;;;;;;;;5052389;28;20456;-51
2023/03/07 09:50:46;;;;;;;42.83;39.92;;;;;;;;;;5052686;28;20085;-49
2023/03/07 09:53:16;;;;;;;44.15;41.15;;;;;;;;;;5052273;28;20029;-49
2023/03/07 09:55:42;;;;;;;44.90;41.90;;;;;;;;;;5051061;28;20056;-54
2023/03/07 09:58:14;;;;;;;43.90;40.90;;;;;;;;;;5051981;28;20635;-53
2023/03/07 10:00:41;;;;;;;44.03;41.03;;;;;;;;;;5037788;28;20111;-51
2023/03/07 10:03:26;;;;;;;44.13;41.13;;;;;;;;;;5033037;28;20029;-51
2023/03/07 10:05:54;;;;;;;44.03;41.03;;;;;;;;;;5051005;28;20451;-48
2023/03/07 10:08:31;;;;;;;43.65;40.75;;;;;;;;;;5052238;28;20028;-52
2023/03/07 10:10:59;;;;;;;44.63;41.63;;;;;;;;;;5052770;28;20116;-48
2023/03/07 10:13:28;;;;;;;44.70;41.70;;;;;;;;;;5052410;28;20573;-50
2023/03/07 10:16:01;;;;;;;44.67;41.67;;;;;;;;;;5052448;28;20021;-52
2023/03/07 10:18:33;;;;;;;45.10;42.10;;;;;;;;;;5053061;28;20511;-49
2023/03/07 10:21:04;;;;;;;43.70;40.70;;;;;;;;;;5054201;28;20036;-51
2023/03/07 10:23:30;;;;;;;44.00;41.00;;;;;;;;;;5053335;28;20028;-50
2023/03/07 10:26:16;;;;;;;45.55;42.45;;;;;;;;;;5052518;28;20025;-52
2023/03/07 10:28:43;;;;;;;44.47;41.38;;;;;;;;;;5052684;28;20021;-53
2023/03/07 10:31:15;;;;;;;43.63;40.63;;;;;;;;;;5052093;28;20036;-51
2023/03/07 10:33:43;;;;;;;43.33;40.25;;;;;;;;;;5051530;28;20028;-50
2023/03/07 10:36:13;;;;;;;43.83;40.83;;;;;;;;;;5051463;28;20029;-56
2023/03/07 10:38:43;;;;;;;42.80;39.80;;;;;;;;;;5051409;28;20025;-50
2023/03/07 10:41:13;;;;;;;43.60;40.60;;;;;;;;;;5046918;28;20033;-50
2023/03/07 10:43:39;;;;;;;42.33;39.33;;;;;;;;;;5048971;28;20036;-49
2023/03/07 10:46:14;;;;;;;43.47;40.47;;;;;;;;;;5050075;28;20434;-51
2023/03/07 10:48:45;;;;;;;41.22;38.33;;;;;;;;;;5051031;28;20096;-50
2023/03/07 10:51:20;;;;;;;41.60;38.70;;;;;;;;;;5049524;28;20516;-55
2023/03/07 10:53:46;;;;;;;43.38;40.38;;;;;;;;;;5044414;28;20395;-56
2023/03/07 10:56:17;;;;;;;43.17;40.17;;;;;;;;;;5042111;28;20124;-54
2023/03/07 10:59:21;;;;;;;43.35;40.35;;;;;;;;;;5049329;28;20036;-52
2023/03/07 11:01:55;;;;;;;41.65;38.75;;;;;;;;;;5014222;28;20108;-54
2023/03/07 11:04:22;;;;;;;41.97;39.07;;;;;;;;;;4658619;28;10000142;-52
2023/03/07 11:06:51;;;;;;;41.20;38.30;;;;;;;;;;5013328;28;20040;-56
2023/03/07 11:09:33;;;;;;;42.58;39.58;;;;;;;;;;5050806;28;20032;-56
2023/03/07 11:12:10;;;;;;;41.80;38.90;;;;;;;;;;5050099;28;20178;-55
2023/03/07 11:14:59;;;;;;;40.38;37.58;;;;;;;;;;5041123;28;20116;-54
2023/03/07 11:17:26;;;;;;;39.63;36.83;;;;;;;;;;5049639;28;20037;-53
2023/03/07 11:19:58;;;;;;;39.30;36.50;;;;;;;;;;5050460;28;20021;-54
2023/03/07 11:22:28;;;;;;;38.80;36.10;;;;;;;;;;5050632;28;20082;-55
2023/03/07 11:25:12;;;;;;;38.90;36.20;;;;;;;;;;5031476;28;20022;-51
2023/03/07 11:27:46;;;;;;;38.17;35.47;;;;;;;;;;5034517;28;20017;-59
2023/03/07 11:30:12;;;;;;;37.90;35.20;;;;;;;;;;5037168;28;20555;-56
2023/03/07 11:32:39;;;;;;;37.38;34.67;;;;;;;;;;5036648;28;20049;-56
2023/03/07 11:35:07;;;;;;;38.95;36.25;;;;;;;;;;5032665;28;20029;-54
2023/03/07 11:37:33;;;;;;;37.72;35.05;;;;;;;;;;5031813;28;20653;-50
2023/03/07 11:40:03;;;;;;;38.13;35.43;;;;;;;;;;4684823;28;10000493;-51
2023/03/07 11:42:42;;;;;;;37.13;34.53;;;;;;;;;;5046660;28;20025;-60
2023/03/07 11:45:42;;;;;;;37.13;34.53;;;;;;;;;;5047924;28;20492;-55
2023/03/07 11:48:26;;;;;;;36.35;33.75;;;;;;;;;;5004482;28;20044;-55
2023/03/07 11:50:56;;;;;;;36.55;33.95;;;;;;;;;;5048091;28;20512;-52
2023/03/07 11:53:41;;;;;;;36.55;33.95;;;;;;;;;;5047884;28;20033;-55
2023/03/07 11:56:19;;;;;;;36.05;33.45;;;;;;;;;;5058274;28;20032;-55
2023/03/07 11:58:45;;;;;;;36.60;34.00;;;;;;;;;;5071976;28;20658;-54
2023/03/07 12:01:20;;;;;;;37.25;34.58;;;;;;;;;;5072078;28;20078;-52
2023/03/07 12:03:53;;;;;;;38.83;35.05;;;;;;;;;;5059220;28;20091;-54
2023/03/07 12:06:19;;;;;;;35.08;32.58;;;;;;;;;;5031332;28;20559;-55
2023/03/07 12:08:48;;;;;;;34.78;32.28;;;;;;;;;;5031658;28;20101;-54
2023/03/07 12:11:29;;;;;;;35.40;32.80;;;;;;;;;;5029740;28;20033;-53
2023/03/07 12:13:58;;;;;;;35.85;33.25;;;;;;;;;;5035394;28;20049;-52
2023/03/07 12:16:36;;;;;;;35.80;33.20;;;;;;;;;;5050931;28;20086;-55
2023/03/07 12:19:20;;;;;;;37.08;34.47;;;;;;;;;;5110730;22;20138;-65
2023/03/07 12:21:49;;;;;;;36.60;34.00;;;;;;;;;;5114177;28;20032;-63
2023/03/07 12:24:26;;;;;;;36.55;33.95;;;;;;;;;;5096350;28;20053;-59
2023/03/07 12:26:52;;;;;;;37.10;34.40;;;;;;;;;;5097274;28;20031;-62
2023/03/07 12:29:44;;;;;;;36.85;34.25;;;;;;;;;;4760227;28;10000259;-61
2023/03/07 12:32:13;;;;;;;36.83;34.22;;;;;;;;;;5100418;28;20144;-61
2023/03/07 12:34:45;;;;;;;36.85;34.25;;;;;;;;;;5106272;28;20020;-64
2023/03/07 12:37:11;;;;;;;34.80;32.30;;;;;;;;;;5114323;28;20027;-62
2023/03/07 12:39:52;;;;;;;35.63;33.03;;;;;;;;;;5113282;28;20381;-63
2023/03/07 12:42:39;;;;;;;35.22;32.65;;;;;;;;;;5095339;28;20380;-63
2023/03/07 12:45:22;;;;;;;36.40;33.70;;;;;;;;;;5095911;28;20028;-64
2023/03/07 12:47:55;;;;;;;37.30;34.60;;;;;;;;;;5092465;28;20396;-57
2023/03/07 12:50:24;;;;;;;36.38;33.78;;;;;;;;;;5093291;28;20016;-61
2023/03/07 12:52:53;;;;;;;36.30;33.70;;;;;;;;;;5100407;28;20625;-61
2023/03/07 12:55:25;;;;;;;35.33;32.72;;;;;;;;;;5108706;28;20027;-59
2023/03/07 12:58:04;;;;;;;35.25;32.65;;;;;;;;;;5113058;28;20027;-62
2023/03/07 13:00:30;;;;;;;;;;;;;;;;;;5095353;28;20054;-65
2023/03/07 13:02:59;;;;;;;32.00;29.60;;;;;;;;;;5087338;28;19951;-65
2023/03/07 13:05:25;;;;;;;32.75;30.25;;;;;;;;;;5092192;28;20089;-65
2023/03/07 13:07:52;;;;;;;48.45;32.78;;;;;;;;;;5092494;28;20039;-64
2023/03/07 13:10:20;;;;;;;32.10;29.70;;;;;;;;;;5074137;28;20103;-65
2023/03/07 13:12:46;;;;;;;30.60;28.30;;;;;;;;;;5092339;28;20028;-60
2023/03/07 13:15:21;;;;;;;30.20;27.90;;;;;;;;;;5073685;28;20024;-64
2023/03/07 13:17:47;;;;;;;29.85;27.55;;;;;;;;;;5091905;28;20035;-62
2023/03/07 13:20:16;;;;;;;31.73;29.33;;;;;;;;;;5093569;28;20028;-62
2023/03/07 13:22:42;;;;;;;30.55;28.25;;;;;;;;;;5093499;28;20024;-63
2023/03/07 13:25:27;;;;;;;29.25;27.05;;;;;;;;;;5093575;28;20024;-65
2023/03/07 13:27:55;;;;;;;28.15;25.95;;;;;;;;;;5093526;28;20152;-63
2023/03/07 13:30:23;;;;;;;27.48;25.27;;;;;;;;;;5093721;28;20476;-66
2023/03/07 13:32:49;;;;;;;24.40;22.40;;;;;;;;;;5093957;28;20526;-64
2023/03/07 13:35:24;;;;;;;24.60;22.60;;;;;;;;;;5093684;28;20036;-63
2023/03/07 13:37:55;;;;;;;24.05;22.05;;;;;;;;;;5094132;28;20051;-63
2023/03/07 13:40:24;;;;;;;23.20;21.20;;;;;;;;;;5094357;28;20044;-63
2023/03/07 13:42:51;;;;;;;23.63;21.63;;;;;;;;;;5093626;28;20050;-62
2023/03/07 13:45:35;;;;;;;24.55;22.55;;;;;;;;;;5093255;28;20073;-61
2023/03/07 13:48:02;;;;;;;24.52;22.52;;;;;;;;;;5075300;28;20024;-60
2023/03/07 13:50:34;;;;;;;23.13;21.13;;;;;;;;;;5093765;28;20027;-62
2023/03/07 13:53:08;;;;;;;22.92;20.92;;;;;;;;;;5075118;28;20024;-63
2023/03/07 13:55:39;;;;;;;23.50;21.50;;;;;;;;;;5075368;28;20472;-57
2023/03/07 13:58:26;;;;;;;23.30;21.30;;;;;;;;;;5093269;28;20441;-62
2023/03/07 14:00:54;;;;;;;23.75;21.75;;;;;;;;;;5075087;28;20147;-63
2023/03/07 14:03:20;;;;;;;;;;;;;;;;;;5077971;28;20043;-63
2023/03/07 14:05:46;;;;;;;20.20;18.35;;;;;;;;;;5095201;28;19903;-65
2023/03/07 14:08:13;;;;;;;18.23;16.42;;;;;;;;;;5095121;28;20600;-65
2023/03/07 14:10:44;;;;;;;18.42;16.63;;;;;;;;;;5095306;28;20464;-60
2023/03/07 14:13:49;;;;;;;18.45;16.65;;;;;;;;;;5112941;28;20055;-64
2023/03/07 14:16:27;;;;;;;16.85;15.15;;;;;;;;;;5017130;28;20028;-62
2023/03/07 14:19:15;;;;;;;17.73;16.02;;;;;;;;;;5013539;28;20044;-58
2023/03/07 14:22:07;;;;;;;17.05;15.35;;;;;;;;;;5070909;28;20034;-62
2023/03/07 14:24:38;;;;;;;15.63;13.93;;;;;;;;;;5094235;28;20377;-62
2023/03/07 14:27:05;;;;;;;15.30;13.10;;;;;;;;;;5075407;28;20020;-64